Time;durP1;ratioP1;P1;durP2;ratioP2;P2;SDS_P1;SDS_P2;PMS_P1;PMS_P2;Temp;Humidity;BMP_temperature;BMP_pressure;BME280_temperature;BME280_humidity;BME280_pressure;Samples;Min_cycle;Max_cycle;Signal;HPM_P1;HPM_P2
2022/03/24 00:01:20;;;;;;;;;;;;;;;6.71;100.00;103148.59;4997085;28;19925;-71
2022/03/24 00:03:46;;;;;;;;;;;;;;;6.69;100.00;103143.28;4996960;28;20371;-72
2022/03/24 00:06:12;;;;;;;;;;;;;;;6.68;100.00;103138.88;4996049;28;19921;-72
2022/03/24 00:08:37;;;;;;;;;;;;;;;6.60;100.00;103130.00;4996990;28;19924;-71
2022/03/24 00:11:02;;;;;;;;;;;;;;;6.54;100.00;103126.41;4996968;28;19922;-71
2022/03/24 00:13:27;;;;;;;;;;;;;;;6.46;100.00;103122.81;4996821;28;19925;-71
2022/03/24 00:15:53;;;;;;;;;;;;;;;6.45;100.00;103116.63;4996973;28;19917;-72
2022/03/24 00:18:18;;;;;;;;;;;;;;;6.41;100.00;103111.31;4995556;28;19925;-71
2022/03/24 00:20:43;;;;;;;;;;;;;;;6.43;100.00;103114.88;4996771;28;19947;-72
2022/03/24 00:23:09;;;;;;;;;;;;;;;6.39;100.00;103118.31;4996590;28;19917;-71
2022/03/24 00:25:34;;;;;;;;;;;;;;;6.34;100.00;103109.47;4997350;28;19917;-71
2022/03/24 00:28:00;;;;;;;;;;;;;;;6.34;100.00;103122.66;4997422;28;19929;-71
2022/03/24 00:30:25;;;;;;;;;;;;;;;6.35;100.00;103124.44;4996496;28;20383;-71
2022/03/24 00:32:50;;;;;;;;;;;;;;;6.30;100.00;103123.50;4996579;28;19917;-71
2022/03/24 00:35:16;;;;;;;;;;;;;;;6.43;100.00;103122.78;4996381;28;20370;-71
2022/03/24 00:37:41;;;;;;;;;;;;;;;6.35;100.00;103130.59;4995150;28;19926;-71
2022/03/24 00:40:07;;;;;;;;;;;;;;;6.36;100.00;103123.56;4996245;28;19933;-71
2022/03/24 00:42:35;;;;;;;;;;;;;;;6.29;100.00;103121.75;4996253;28;19918;-72
2022/03/24 00:45:01;;;;;;;;;;;;;;;6.19;100.00;103123.41;4996756;28;19922;-71
2022/03/24 00:47:27;;;;;;;;;;;;;;;6.13;100.00;103111.00;4996306;28;19918;-71
2022/03/24 00:49:52;;;;;;;;;;;;;;;6.12;100.00;103125.09;4996125;28;20366;-71
2022/03/24 00:52:17;;;;;;;;;;;;;;;6.11;100.00;103127.69;4995855;28;20394;-71
2022/03/24 00:54:42;;;;;;;;;;;;;;;6.07;100.00;103125.88;4996139;28;20390;-71
2022/03/24 00:57:07;;;;;;;;;;;;;;;6.06;100.00;103124.13;4996022;28;19985;-72
2022/03/24 00:59:33;;;;;;;;;;;;;;;5.94;100.00;103118.72;4995928;28;20008;-71
2022/03/24 01:01:59;;;;;;;;;;;;;;;5.86;100.00;103120.34;4996016;28;19918;-71
2022/03/24 01:04:24;;;;;;;;;;;;;;;5.82;100.00;103122.06;4994652;28;19979;-72
2022/03/24 01:06:49;;;;;;;;;;;;;;;5.74;100.00;103118.41;4996153;28;20024;-72
2022/03/24 01:09:14;;;;;;;;;;;;;;;5.70;100.00;103106.06;4995801;28;19918;-71
2022/03/24 01:11:40;;;;;;;;;;;;;;;5.65;100.00;103106.84;4994475;28;19918;-72
2022/03/24 01:14:07;;;;;;;;;;;;;;;5.63;100.00;103111.19;4995618;28;20298;-71
2022/03/24 01:16:33;;;;;;;;;;;;;;;5.66;100.00;103111.25;4993827;28;19921;-72
2022/03/24 01:18:58;;;;;;;;;;;;;;;5.61;100.00;103111.19;4995783;28;19988;-71
2022/03/24 01:21:23;;;;;;;;;;;;;;;5.59;100.00;103105.03;4995602;28;19958;-71
2022/03/24 01:23:49;;;;;;;;;;;;;;;5.61;100.00;103110.31;4995525;28;19925;-71
2022/03/24 01:26:15;;;;;;;;;;;;;;;5.58;100.00;103103.25;4995503;28;19924;-71
2022/03/24 01:28:41;;;;;;;;;;;;;;;5.60;100.00;103108.53;4995688;28;19922;-72
2022/03/24 01:31:10;;;;;;;;;;;;;;;5.54;100.00;103109.34;4994178;28;19917;-71
2022/03/24 01:33:38;;;;;;;;;;;;;;;5.50;100.00;103099.59;4995315;28;20005;-72
2022/03/24 01:36:07;;;;;;;;;;;;;;;5.47;100.00;103104.84;4995672;28;19917;-71
2022/03/24 01:38:33;;;;;;;;;;;;;;;5.40;100.00;103110.91;4994205;28;19917;-71
2022/03/24 01:40:58;;;;;;;;;;;;;;;5.36;100.00;103109.06;4993852;28;19924;-71
2022/03/24 01:43:25;;;;;;;;;;;;;;;5.36;100.00;103114.34;5010331;28;19918;-71
2022/03/24 01:45:51;;;;;;;;;;;;;;;5.37;100.00;103110.88;4993767;28;19994;-71
2022/03/24 01:48:16;;;;;;;;;;;;;;;5.35;100.00;103109.06;4994993;28;19940;-71
2022/03/24 01:53:18;;;;;;;;;;;;;;;5.37;100.00;103096.78;5695634;23;20354;-71
2022/03/24 01:55:43;;;;;;;;;;;;;;;5.34;100.00;103109.94;5015538;28;19922;-71
2022/03/24 01:58:17;;;;;;;;;;;;;;;5.34;100.00;103110.78;5027524;28;19963;-70
2022/03/24 02:00:45;;;;;;;;;;;;;;;5.31;100.00;103104.63;5027900;28;19917;-70
2022/03/24 02:03:40;;;;;;;;;;;;;;;5.29;100.00;103109.88;5014279;28;19921;-71
2022/03/24 02:06:06;;;;;;;;;;;;;;;5.27;100.00;103105.41;5015161;28;19968;-70
2022/03/24 02:08:34;;;;;;;;;;;;;;;5.17;100.00;103112.28;5023235;28;19921;-71
2022/03/24 02:10:59;;;;;;;;;;;;;;;5.14;100.00;103122.78;5033654;28;20368;-70
2022/03/24 02:13:24;;;;;;;;;;;;;;;5.07;100.00;103112.13;5033348;28;19917;-70
2022/03/24 02:15:50;;;;;;;;;;;;;;;5.04;100.00;103110.34;5034734;28;19917;-70
2022/03/24 02:18:15;;;;;;;;;;;;;;;5.02;100.00;103114.69;5034739;28;19979;-71
2022/03/24 02:20:41;;;;;;;;;;;;;;;5.01;100.00;103118.16;5032841;28;20306;-71
2022/03/24 02:23:06;;;;;;;;;;;;;;;4.97;100.00;103112.84;5033023;28;19921;-71
2022/03/24 02:25:33;;;;;;;;;;;;;;;4.97;100.00;103111.09;5033032;28;19932;-70
2022/03/24 02:28:02;;;;;;;;;;;;;;;4.94;100.00;103112.78;5032427;28;19921;-70
2022/03/24 02:30:29;;;;;;;;;;;;;;;4.93;100.00;103111.94;5034765;28;19924;-70
2022/03/24 02:32:54;;;;;;;;;;;;;;;4.94;100.00;103118.06;5034708;28;19924;-70
2022/03/24 02:35:19;;;;;;;;;;;;;;;4.90;100.00;103111.84;5034466;28;19917;-70
2022/03/24 02:37:44;;;;;;;;;;;;;;;4.83;100.00;103112.63;5035139;28;20433;-70
2022/03/24 02:40:10;;;;;;;;;;;;;;;4.82;100.00;103109.97;5034034;28;19925;-70
2022/03/24 02:42:35;;;;;;;;;;;;;;;4.77;100.00;103115.16;5034314;28;19925;-71
2022/03/24 02:45:04;;;;;;;;;;;;;;;4.84;100.00;103113.50;5033088;28;19940;-71
2022/03/24 02:47:29;;;;;;;;;;;;;;;5.10;100.00;103117.44;5034092;28;20302;-70
2022/03/24 02:49:56;;;;;;;;;;;;;;;5.19;100.00;103121.13;5034664;28;19917;-70
2022/03/24 02:52:21;;;;;;;;;;;;;;;5.18;100.00;103111.44;5034031;28;19924;-71
2022/03/24 02:54:46;;;;;;;;;;;;;;;5.13;100.00;103115.75;5035328;28;19922;-70
2022/03/24 02:57:12;;;;;;;;;;;;;;;5.08;100.00;103127.97;5033869;28;19921;-70
2022/03/24 02:59:37;;;;;;;;;;;;;;;4.97;100.00;103126.00;5034728;28;20012;-70
2022/03/24 03:02:07;;;;;;;;;;;;;;;4.88;100.00;103121.50;5033799;28;19917;-70
2022/03/24 03:04:34;;;;;;;;;;;;;;;4.84;100.00;103122.28;5033874;28;19924;-69
2022/03/24 03:07:02;;;;;;;;;;;;;;;4.79;100.00;103118.69;5033980;28;19983;-69
2022/03/24 03:09:27;;;;;;;;;;;;;;;4.72;100.00;103116.81;5032810;28;19917;-69
2022/03/24 03:11:52;;;;;;;;;;;;;;;4.69;100.00;103116.75;5034418;28;19940;-69
2022/03/24 03:14:19;;;;;;;;;;;;;;;4.67;100.00;103115.84;5033917;28;19924;-70
2022/03/24 03:16:47;;;;;;;;;;;;;;;4.65;100.00;103120.19;5034246;28;20007;-70
2022/03/24 03:19:13;;;;;;;;;;;;;;;4.65;100.00;103117.56;5034124;28;19917;-70
2022/03/24 03:21:39;;;;;;;;;;;;;;;4.60;100.00;103119.25;5033914;28;19967;-69
2022/03/24 03:24:05;;;;;;;;;;;;;;;4.56;100.00;103114.75;5033879;28;19924;-70
2022/03/24 03:26:31;;;;;;;;;;;;;;;4.50;100.00;103112.03;5034585;28;20012;-70
2022/03/24 03:28:56;;;;;;;;;;;;;;;4.46;100.00;103118.06;5033618;28;19968;-69
2022/03/24 03:31:21;;;;;;;;;;;;;;;4.43;100.00;103120.66;5033883;28;20351;-69
2022/03/24 03:33:46;;;;;;;;;;;;;;;4.43;100.00;103116.28;5032000;28;20037;-69
2022/03/24 03:36:12;;;;;;;;;;;;;;;4.43;100.00;103111.03;5012759;28;19923;-69
2022/03/24 03:38:38;;;;;;;;;;;;;;;4.44;100.00;103123.31;5012441;28;20029;-70
2022/03/24 03:41:03;;;;;;;;;;;;;;;4.50;100.00;103125.19;5020565;28;19917;-69
2022/03/24 03:43:29;;;;;;;;;;;;;;;4.46;100.00;103131.22;5037278;28;19917;-69
2022/03/24 03:45:54;;;;;;;;;;;;;;;4.40;100.00;103124.13;5037488;28;19921;-70
2022/03/24 03:48:19;;;;;;;;;;;;;;;4.31;100.00;103129.22;5036276;28;19918;-70
2022/03/24 03:50:44;;;;;;;;;;;;;;;4.24;100.00;103127.31;5037564;28;19928;-70
2022/03/24 03:53:10;;;;;;;;;;;;;;;4.21;100.00;103121.09;5036958;28;20380;-69
2022/03/24 03:55:36;;;;;;;;;;;;;;;4.18;100.00;103121.03;5037103;28;19921;-69
2022/03/24 03:58:01;;;;;;;;;;;;;;;4.18;100.00;103126.31;5037242;28;19917;-70
2022/03/24 04:03:12;;;;;;;;;;;;;;;4.14;100.00;103124.50;5037765;28;19924;-70
2022/03/24 04:05:38;;;;;;;;;;;;;;;4.13;100.00;103131.47;5036756;28;19917;-70
2022/03/24 04:08:03;;;;;;;;;;;;;;;4.10;100.00;103135.78;5037698;28;19972;-69
2022/03/24 04:10:30;;;;;;;;;;;;;;;4.06;100.00;103126.06;5036830;28;19964;-69
2022/03/24 04:12:55;;;;;;;;;;;;;;;4.06;100.00;103128.72;5018517;28;19948;-69
2022/03/24 04:15:24;;;;;;;;;;;;;;;4.07;100.00;103134.00;5017305;28;19918;-69
2022/03/24 04:17:50;;;;;;;;;;;;;;;4.08;100.00;103130.50;5017251;28;19924;-69
2022/03/24 04:20:20;;;;;;;;;;;;;;;4.06;100.00;103139.22;5015697;28;19922;-70
2022/03/24 04:22:46;;;;;;;;;;;;;;;4.03;100.00;103134.81;5023458;28;20003;-69
2022/03/24 04:25:11;;;;;;;;;;;;;;;4.03;100.00;103139.16;5036970;28;19921;-70
2022/03/24 04:27:36;;;;;;;;;;;;;;;4.01;100.00;103133.88;5036981;28;19917;-70
2022/03/24 04:30:01;;;;;;;;;;;;;;;3.97;100.00;103146.94;5036731;28;20002;-69
2022/03/24 04:32:26;;;;;;;;;;;;;;;3.89;100.00;103145.88;5036456;28;19998;-70
2022/03/24 04:34:52;;;;;;;;;;;;;;;3.80;100.00;103137.81;5036485;28;19928;-69
2022/03/24 04:37:17;;;;;;;;;;;;;;;3.82;100.00;103146.59;5037065;28;19917;-69
2022/03/24 04:39:42;;;;;;;;;;;;;;;3.82;100.00;103146.59;5035710;28;19917;-70
2022/03/24 04:42:08;;;;;;;;;;;;;;;3.83;100.00;103144.00;5037065;28;20271;-69
2022/03/24 04:44:34;;;;;;;;;;;;;;;3.83;100.00;103156.28;5035345;28;19917;-69
2022/03/24 04:46:59;;;;;;;;;;;;;;;3.88;100.00;103146.72;5036438;28;19917;-69
2022/03/24 04:49:26;;;;;;;;;;;;;;;3.83;100.00;103151.00;5036797;28;19968;-69
2022/03/24 04:51:52;;;;;;;;;;;;;;;3.81;100.00;103156.25;5036391;28;20242;-69
2022/03/24 04:54:18;;;;;;;;;;;;;;;3.75;100.00;103152.59;5034831;28;19921;-69
2022/03/24 04:56:44;;;;;;;;;;;;;;;3.77;100.00;103158.75;5035314;28;19921;-70
2022/03/24 04:59:09;;;;;;;;;;;;;;;3.74;100.00;103146.44;5026100;28;20008;-69
2022/03/24 05:01:35;;;;;;;;;;;;;;;3.73;100.00;103154.28;5029762;28;19963;-69
2022/03/24 05:04:00;;;;;;;;;;;;;;;3.71;100.00;103159.50;5034449;28;19977;-69
2022/03/24 05:06:26;;;;;;;;;;;;;;;3.61;100.00;103161.91;5036268;28;20378;-69
2022/03/24 05:08:51;;;;;;;;;;;;;;;3.62;100.00;103158.41;5021195;28;19917;-70
2022/03/24 05:11:16;;;;;;;;;;;;;;;3.62;100.00;103159.31;5016752;28;19945;-71
2022/03/24 05:13:42;;;;;;;;;;;;;;;3.60;100.00;103162.75;5024747;28;19917;-70
2022/03/24 05:16:07;;;;;;;;;;;;;;;3.56;100.00;103160.91;5022369;28;19918;-71
2022/03/24 05:18:32;;;;;;;;;;;;;;;3.51;100.00;103166.06;5026580;28;20398;-72
2022/03/24 05:20:57;;;;;;;;;;;;;;;3.50;100.00;103164.28;5031192;28;19928;-75
2022/03/24 05:23:30;;;;;;;;;;;;;;;3.54;100.00;103167.88;5030458;28;20385;-70
2022/03/24 05:25:56;;;;;;;;;;;;;;;3.50;100.00;103168.66;5019534;28;19979;-71
2022/03/24 05:28:22;;;;;;;;;;;;;;;3.49;100.00;103173.00;5019296;28;19922;-70
2022/03/24 05:30:47;;;;;;;;;;;;;;;3.51;100.00;103162.53;5020411;28;19927;-71
2022/03/24 05:33:13;;;;;;;;;;;;;;;3.51;100.00;103171.31;5022068;28;19971;-72
2022/03/24 05:35:38;;;;;;;;;;;;;;;3.52;100.00;103169.56;5021049;28;19918;-69
2022/03/24 05:38:04;;;;;;;;;;;;;;;3.51;100.00;103173.03;5029171;28;19921;-70
2022/03/24 05:40:29;;;;;;;;;;;;;;;3.51;100.00;103173.03;5026048;28;19976;-70
2022/03/24 05:42:54;;;;;;;;;;;;;;;3.56;100.00;103180.16;5023185;28;19917;-71
2022/03/24 05:45:20;;;;;;;;;;;;;;;3.55;100.00;103180.13;5023368;28;19924;-71
2022/03/24 05:47:46;;;;;;;;;;;;;;;3.56;100.00;103188.03;5019089;28;19925;-72
2022/03/24 05:50:12;;;;;;;;;;;;;;;3.71;100.00;103184.88;5028651;28;19921;-70
2022/03/24 05:52:38;;;;;;;;;;;;;;;3.65;100.00;103192.63;5022806;28;20286;-68
2022/03/24 05:55:03;;;;;;;;;;;;;;;3.66;100.00;103197.03;5023447;28;19984;-69
2022/03/24 05:57:29;;;;;;;;;;;;;;;3.79;100.00;103191.22;5025564;28;20020;-69
2022/03/24 06:02:57;;;;;;;;;;;;;;;3.79;100.00;103193.84;5026965;28;19944;-69
2022/03/24 06:05:23;;;;;;;;;;;;;;;3.80;100.00;103191.25;5026910;28;19922;-71
2022/03/24 06:07:49;;;;;;;;;;;;;;;3.83;100.00;103187.81;5028227;28;20020;-69
2022/03/24 06:10:14;;;;;;;;;;;;;;;3.79;100.00;103193.84;5026173;28;19981;-72
2022/03/24 06:12:39;;;;;;;;;;;;;;;3.77;100.00;103195.53;5018853;28;20267;-70
2022/03/24 06:15:24;;;;;;;;;;;;;;;3.83;100.00;103193.06;5019832;28;19968;-70
2022/03/24 06:17:49;;;;;;;;;;;;;;;3.86;100.00;103187.88;5035675;28;19935;-69
2022/03/24 06:20:14;;;;;;;;;;;;;;;3.93;100.00;103202.91;5027773;28;20251;-68
2022/03/24 06:22:48;;;;;;;;;;;;;;;4.00;100.00;103199.56;5021468;28;19918;-68
2022/03/24 06:25:13;;;;;;;;;;;;;;;4.03;100.00;103200.53;5017546;28;19917;-70
2022/03/24 06:27:39;;;;;;;;;;;;;;;4.09;100.00;103205.03;5015342;28;19917;-68
2022/03/24 06:30:05;;;;;;;;;;;;;;;4.18;100.00;103202.56;5014553;28;19918;-72
2022/03/24 06:32:31;;;;;;;;;;;;;;;4.22;100.00;103196.53;5015377;28;20255;-73
2022/03/24 06:34:56;;;;;;;;;;;;;;;4.34;100.00;103207.31;5030793;28;19921;-70
2022/03/24 06:37:21;;;;;;;;;;;;;;;4.34;100.00;103202.03;5012732;28;20024;-69
2022/03/24 06:39:46;;;;;;;;;;;;;;;4.40;100.00;103202.16;5014201;28;19918;-69
2022/03/24 06:42:12;;;;;;;;;;;;;;;4.50;100.00;103201.50;5012324;28;20378;-69
2022/03/24 06:44:38;;;;;;;;;;;;;;;4.58;100.00;103202.53;5013618;28;20011;-68
2022/03/24 06:47:03;;;;;;;;;;;;;;;4.68;100.00;103209.72;5019324;28;19921;-69
2022/03/24 06:49:29;;;;;;;;;;;;;;;4.84;100.00;103195.13;5017038;28;19917;-70
2022/03/24 06:51:54;;;;;;;;;;;;;;;4.92;100.00;103204.91;5015492;28;20023;-70
2022/03/24 06:54:19;;;;;;;;;;;;;;;5.00;100.00;103205.06;5033581;28;19925;-70
2022/03/24 06:56:44;;;;;;;;;;;;;;;5.11;100.00;103203.50;5026177;28;20337;-68
2022/03/24 06:59:10;;;;;;;;;;;;;;;5.19;100.00;103215.94;5013917;28;19924;-68
2022/03/24 07:01:36;;;;;;;;;;;;;;;5.26;100.00;103212.56;5012184;28;19925;-71
2022/03/24 07:04:01;;;;;;;;;;;;;;;5.35;100.00;103219.72;5012251;28;19917;-70
2022/03/24 07:06:26;;;;;;;;;;;;;;;5.47;100.00;103212.00;5015338;28;20008;-71
2022/03/24 07:08:52;;;;;;;;;;;;;;;5.60;100.00;103222.78;5017069;28;20268;-68
2022/03/24 07:11:18;;;;;;;;;;;;;;;5.66;100.00;103222.88;5023142;28;19928;-70
2022/03/24 07:13:43;;;;;;;;;;;;;;;5.77;100.00;103221.28;5028720;28;19925;-71
2022/03/24 07:16:09;;;;;;;;;;;;;;;5.96;100.00;103230.34;5028116;28;19922;-70
2022/03/24 07:18:34;;;;;;;;;;;;;;;6.10;100.00;103232.34;5026747;28;19945;-72
2022/03/24 07:20:59;;;;;;;;;;;;;;;6.25;100.00;103236.94;5040541;28;19921;-71
2022/03/24 07:23:24;;;;;;;;;;;;;;;6.40;100.00;103238.88;5037084;28;19921;-70
2022/03/24 07:25:50;;;;;;;;;;;;;;;6.59;100.00;103241.75;5037060;28;19917;-70
2022/03/24 07:28:15;;;;;;;;;;;;;;;6.78;100.00;103240.19;5037225;28;19928;-70
2022/03/24 07:30:42;;;;;;;;;;;;;;;6.90;100.00;103243.00;5036910;28;19921;-70
2022/03/24 07:33:09;;;;;;;;;;;;;;;6.98;100.00;103239.53;5037506;28;20041;-72
2022/03/24 07:35:35;;;;;;;;;;;;;;;7.06;100.00;103244.94;5037091;28;20007;-72
2022/03/24 07:38:00;;;;;;;;;;;;;;;7.19;100.00;103242.41;5036797;28;19964;-69
2022/03/24 07:40:26;;;;;;;;;;;;;;;7.28;100.00;103245.13;5035522;28;20367;-69
2022/03/24 07:42:52;;;;;;;;;;;;;;;7.36;100.00;103239.88;5036882;28;19917;-69
2022/03/24 07:45:18;;;;;;;;;;;;;;;7.44;100.00;103235.56;5036708;28;20012;-69
2022/03/24 07:48:03;;;;;;;;;;;;;;;7.54;100.00;103235.66;5037019;28;19917;-71
2022/03/24 07:50:28;;;;;;;;;;;;;;;7.68;100.00;103220.78;5033207;28;19967;-71
2022/03/24 07:52:53;;;;;;;;;;;;;;;7.82;100.00;103199.69;5027114;28;19921;-71
2022/03/24 07:55:19;;;;;;;;;;;;;;;8.02;100.00;103179.50;5037670;28;19983;-75
2022/03/24 07:57:50;;;;;;;;;;;;;;;8.31;100.00;103137.31;5030068;28;19922;-70
2022/03/24 08:00:15;;;;;;;;;;;;;;;8.40;100.00;103110.88;5044878;28;20301;-69
2022/03/24 08:02:42;;;;;;;;;;;;;;;8.47;100.00;103094.13;5049560;28;19905;-71
2022/03/24 08:05:07;;;;;;;;;;;;;;;8.58;100.00;103095.00;5046396;28;19943;-70
2022/03/24 08:07:32;;;;;;;;;;;;;;;8.64;100.00;103080.00;5037441;28;19988;-69
2022/03/24 08:09:59;;;;;;;;;;;;;;;8.85;100.00;103077.38;5051043;28;19918;-69
2022/03/24 08:12:24;;;;;;;;;;;;;;;8.91;100.00;103079.13;5050448;28;19927;-70
2022/03/24 08:14:50;;;;;;;;;;;;;;;9.00;100.00;103068.50;5049385;28;20382;-72
2022/03/24 08:17:15;;;;;;;;;;;;;;;9.21;100.00;103074.69;5049484;28;20263;-72
2022/03/24 08:19:40;;;;;;;;;;;;;;;9.31;100.00;103070.25;5049203;28;19917;-69
2022/03/24 08:22:05;;;;;;;;;;;;;;;9.36;100.00;103062.28;5048866;28;19928;-69
2022/03/24 08:24:31;;;;;;;;;;;;;;;9.51;100.00;103057.81;5048210;28;19979;-70
2022/03/24 08:26:56;;;;;;;;;;;;;;;9.59;100.00;103050.72;5049924;28;20356;-69
2022/03/24 08:29:21;;;;;;;;;;;;;;;9.68;100.00;103049.78;5048274;28;19917;-71
2022/03/24 08:31:48;;;;;;;;;;;;;;;9.75;100.00;103039.16;5050174;28;19921;-71
2022/03/24 08:34:14;;;;;;;;;;;;;;;9.82;100.00;103048.84;5049242;28;19948;-70
2022/03/24 08:36:40;;;;;;;;;;;;;;;9.90;100.00;103046.16;5049933;28;20285;-71
2022/03/24 08:39:05;;;;;;;;;;;;;;;9.99;100.00;103040.81;5047519;28;19917;-71
2022/03/24 08:41:30;;;;;;;;;;;;;;;10.16;100.00;103044.28;5036628;28;19921;-71
2022/03/24 08:43:56;;;;;;;;;;;;;;;10.47;100.00;103043.19;5037108;28;19942;-71
2022/03/24 08:46:24;;;;;;;;;;;;;;;10.58;100.00;103049.28;5033796;28;19917;-72
2022/03/24 08:48:50;;;;;;;;;;;;;;;10.76;100.00;103059.78;5041217;28;19948;-71
2022/03/24 08:51:15;;;;;;;;;;;;;;;10.96;100.00;103055.19;5037125;28;19921;-69
2022/03/24 08:53:40;;;;;;;;;;;;;;;11.03;100.00;103051.56;5027310;28;19947;-71
2022/03/24 08:56:06;;;;;;;;;;;;;;;11.17;100.00;103055.00;5035989;28;19940;-72
